Time;durP1;ratioP1;P1;durP2;ratioP2;P2;SDS_P1;SDS_P2;PMS_P1;PMS_P2;Temp;Humidity;BMP_temperature;BMP_pressure;BME280_temperature;BME280_humidity;BME280_pressure;Samples;Min_cycle;Max_cycle;Signal;HPM_P1;HPM_P2
2022/07/23 00:01:28;;;;;;;2.83;0.93;;;17.70;99.90;;;;;;4893614;29;20405;-66
2022/07/23 00:03:54;;;;;;;2.40;1.08;;;17.70;99.90;;;;;;4907737;29;20560;-66
2022/07/23 00:06:20;;;;;;;3.20;1.10;;;17.70;99.90;;;;;;4893715;29;20616;-67
2022/07/23 00:08:45;;;;;;;3.33;1.00;;;17.70;99.90;;;;;;4913214;29;20704;-66
2022/07/23 00:11:12;;;;;;;3.33;1.00;;;17.70;99.90;;;;;;4896149;29;20797;-67
2022/07/23 00:13:37;;;;;;;3.33;1.20;;;17.60;99.90;;;;;;4895742;29;20726;-66
2022/07/23 00:16:03;;;;;;;3.63;1.20;;;17.70;99.90;;;;;;4896463;29;20877;-67
2022/07/23 00:18:29;;;;;;;1.55;0.85;;;17.70;99.90;;;;;;4898355;29;20436;-67
2022/07/23 00:20:54;;;;;;;3.20;0.98;;;17.60;99.90;;;;;;4899190;29;20429;-67
2022/07/23 00:23:20;;;;;;;3.50;1.17;;;17.50;99.90;;;;;;4914718;29;20420;-67
2022/07/23 00:25:46;;;;;;;1.77;0.80;;;17.50;99.90;;;;;;4913972;29;20802;-67
2022/07/23 00:28:12;;;;;;;1.83;0.83;;;17.50;99.90;;;;;;4898034;29;20424;-67
2022/07/23 00:30:37;;;;;;;2.03;0.90;;;17.50;99.90;;;;;;4897758;29;20393;-67
2022/07/23 00:33:07;;;;;;;1.60;0.70;;;17.60;99.90;;;;;;4896801;29;20404;-67
2022/07/23 00:35:35;;;;;;;4.13;1.02;;;17.60;99.90;;;;;;4912832;29;20397;-67
2022/07/23 00:38:02;;;;;;;2.65;0.77;;;17.50;99.90;;;;;;4895549;29;20404;-67
2022/07/23 00:40:29;;;;;;;2.95;0.98;;;17.40;99.90;;;;;;4894476;29;20447;-67
2022/07/23 00:42:55;;;;;;;2.53;0.70;;;17.40;99.90;;;;;;4894595;29;20410;-67
2022/07/23 00:45:21;;;;;;;1.85;0.80;;;17.30;99.90;;;;;;4894327;29;20389;-67
2022/07/23 00:47:47;;;;;;;5.60;0.93;;;17.30;99.90;;;;;;4895933;29;20401;-67
2022/07/23 00:50:13;;;;;;;2.28;0.88;;;17.30;99.90;;;;;;4897609;29;20448;-67
2022/07/23 00:52:40;;;;;;;3.13;0.77;;;17.30;99.90;;;;;;4898533;29;20477;-67
2022/07/23 00:55:07;;;;;;;3.17;0.98;;;17.40;99.90;;;;;;4897489;29;20439;-67
2022/07/23 00:57:33;;;;;;;2.55;1.02;;;17.40;99.90;;;;;;4898498;29;20393;-67
2022/07/23 00:59:59;;;;;;;2.05;0.93;;;17.40;99.90;;;;;;4896425;29;20459;-67
2022/07/23 01:02:25;;;;;;;1.98;0.85;;;17.40;99.90;;;;;;4896478;29;20480;-67
2022/07/23 01:04:51;;;;;;;3.60;1.10;;;17.40;99.90;;;;;;4912686;29;20655;-67
2022/07/23 01:07:18;;;;;;;3.35;1.20;;;17.30;99.90;;;;;;4897579;29;20402;-67
2022/07/23 01:09:45;;;;;;;2.53;0.73;;;17.30;99.90;;;;;;4895586;29;20908;-67
2022/07/23 01:12:11;;;;;;;3.20;1.10;;;17.30;99.90;;;;;;4896217;29;20405;-67
2022/07/23 01:14:37;;;;;;;3.13;1.00;;;17.30;99.90;;;;;;4898665;29;20424;-67
2022/07/23 01:17:04;;;;;;;3.95;1.25;;;17.30;99.90;;;;;;4903304;29;20492;-67
2022/07/23 01:19:30;;;;;;;4.70;1.40;;;17.30;99.90;;;;;;4919144;29;20408;-67
2022/07/23 01:21:58;;;;;;;1.87;1.00;;;17.20;99.90;;;;;;4901952;29;20429;-67
2022/07/23 01:24:24;;;;;;;3.17;1.10;;;17.20;99.90;;;;;;4902905;29;20627;-67
2022/07/23 01:26:50;;;;;;;3.33;1.20;;;17.10;99.90;;;;;;4904453;29;20393;-67
2022/07/23 01:29:16;;;;;;;3.70;1.10;;;17.10;99.90;;;;;;4903740;29;20393;-67
2022/07/23 01:31:42;;;;;;;1.77;0.77;;;17.10;99.90;;;;;;4902636;29;20805;-67
2022/07/23 01:34:08;;;;;;;4.75;1.10;;;17.00;99.90;;;;;;4918080;29;20393;-67
2022/07/23 01:36:34;;;;;;;3.17;1.00;;;17.00;99.90;;;;;;4901643;29;20401;-67
2022/07/23 01:39:00;;;;;;;4.68;0.90;;;17.00;99.90;;;;;;4900909;29;20420;-67
2022/07/23 01:41:26;;;;;;;3.77;1.03;;;17.00;99.90;;;;;;4901559;29;20404;-67
2022/07/23 01:43:51;;;;;;;2.03;0.90;;;17.00;99.90;;;;;;4902449;29;20417;-67
2022/07/23 01:46:17;;;;;;;4.85;1.05;;;17.00;99.90;;;;;;4918398;29;20401;-67
2022/07/23 01:48:43;;;;;;;3.03;0.90;;;17.00;99.90;;;;;;4902728;29;20397;-67
2022/07/23 01:51:08;;;;;;;2.60;0.80;;;17.00;99.90;;;;;;4901296;29;20465;-67
2022/07/23 01:53:34;;;;;;;3.13;0.88;;;17.00;99.90;;;;;;4900960;29;20483;-67
2022/07/23 01:56:00;;;;;;;1.50;0.70;;;17.10;99.90;;;;;;4899605;29;20409;-67
2022/07/23 01:58:27;;;;;;;5.05;1.10;;;17.10;99.90;;;;;;4915487;29;20683;-67
2022/07/23 02:00:53;;;;;;;2.03;0.70;;;17.00;99.90;;;;;;4899856;29;20731;-67
2022/07/23 02:03:19;;;;;;;2.20;0.77;;;17.00;99.90;;;;;;4916696;29;20814;-67
2022/07/23 02:05:45;;;;;;;3.22;0.80;;;16.90;99.90;;;;;;4899358;29;20412;-67
2022/07/23 02:08:10;;;;;;;2.58;0.80;;;16.90;99.90;;;;;;4915925;29;20389;-67
2022/07/23 02:10:37;;;;;;;3.13;1.20;;;17.00;99.90;;;;;;4897879;29;20440;-67
2022/07/23 02:13:02;;;;;;;2.17;0.70;;;17.00;99.90;;;;;;4899246;29;20405;-67
2022/07/23 02:15:28;;;;;;;1.67;0.77;;;16.90;99.90;;;;;;4898229;29;20473;-67
2022/07/23 02:17:54;;;;;;;1.95;0.82;;;16.90;99.90;;;;;;4900150;29;20389;-67
2022/07/23 02:20:20;;;;;;;1.77;0.80;;;17.00;99.90;;;;;;4900840;29;20405;-67
2022/07/23 02:22:45;;;;;;;1.17;0.65;;;17.00;99.90;;;;;;4899580;29;20433;-67
2022/07/23 02:25:11;;;;;;;2.50;0.73;;;17.00;99.90;;;;;;4915806;29;20911;-67
2022/07/23 02:27:37;;;;;;;2.20;0.80;;;16.90;99.90;;;;;;4898487;29;20389;-67
2022/07/23 02:30:03;;;;;;;2.70;0.70;;;17.00;99.90;;;;;;4915967;29;20719;-67
2022/07/23 02:32:29;;;;;;;2.17;0.83;;;17.00;99.90;;;;;;4898439;29;20465;-67
2022/07/23 02:34:54;;;;;;;2.47;0.90;;;17.10;99.90;;;;;;4898965;29;20424;-67
2022/07/23 02:37:20;;;;;;;3.28;1.20;;;17.00;99.90;;;;;;4900998;29;20487;-67
2022/07/23 02:39:48;;;;;;;2.37;0.90;;;17.10;99.90;;;;;;4917507;29;20846;-67
2022/07/23 02:42:13;;;;;;;3.25;0.82;;;17.00;99.90;;;;;;4915537;29;20476;-67
2022/07/23 02:44:39;;;;;;;3.38;1.05;;;16.90;99.90;;;;;;4899377;29;20409;-67
2022/07/23 02:47:05;;;;;;;2.72;0.73;;;16.90;99.90;;;;;;4915774;29;20405;-67
2022/07/23 02:49:30;;;;;;;2.27;0.87;;;16.80;99.90;;;;;;4913969;29;20404;-67
2022/07/23 02:51:56;;;;;;;1.90;0.80;;;16.80;99.90;;;;;;4897372;29;20595;-67
2022/07/23 02:54:21;;;;;;;2.57;0.90;;;16.80;99.90;;;;;;4897917;29;20489;-67
2022/07/23 02:56:47;;;;;;;2.57;0.70;;;16.90;99.90;;;;;;4899161;29;20469;-67
2022/07/23 02:59:13;;;;;;;1.92;1.00;;;16.90;99.90;;;;;;4898009;29;20420;-67
2022/07/23 03:01:39;;;;;;;1.48;0.80;;;16.80;99.90;;;;;;4898259;29;20468;-67
2022/07/23 03:04:04;;;;;;;2.13;0.80;;;16.90;99.90;;;;;;4898065;29;20452;-67
2022/07/23 03:06:30;;;;;;;2.07;0.80;;;16.80;99.90;;;;;;4898911;29;20550;-67
2022/07/23 03:08:55;;;;;;;2.90;1.10;;;16.80;99.90;;;;;;4899872;29;20424;-67
2022/07/23 03:11:21;;;;;;;2.40;0.93;;;16.80;99.90;;;;;;4899463;29;20401;-67
2022/07/23 03:13:46;;;;;;;4.18;1.15;;;16.80;99.90;;;;;;4897715;29;20733;-67
2022/07/23 03:16:12;;;;;;;2.97;0.80;;;16.70;99.90;;;;;;4914417;29;20730;-67
2022/07/23 03:18:37;;;;;;;5.40;1.15;;;16.70;99.90;;;;;;4898205;29;20404;-67
2022/07/23 03:21:03;;;;;;;1.75;0.80;;;16.70;99.90;;;;;;4897171;29;20421;-67
2022/07/23 03:23:29;;;;;;;2.67;0.90;;;16.70;99.90;;;;;;4914916;29;20433;-67
2022/07/23 03:25:54;;;;;;;2.90;0.97;;;16.70;99.90;;;;;;4899527;29;20876;-67
2022/07/23 03:28:20;;;;;;;3.08;0.98;;;16.60;99.90;;;;;;4914693;29;20454;-67
2022/07/23 03:30:47;;;;;;;2.97;0.88;;;16.70;99.90;;;;;;4897424;29;20408;-67
2022/07/23 03:33:13;;;;;;;2.95;1.20;;;16.60;99.90;;;;;;4913925;29;20686;-67
2022/07/23 03:35:39;;;;;;;2.70;0.98;;;16.60;99.90;;;;;;4897877;29;20431;-67
2022/07/23 03:38:05;;;;;;;3.25;1.10;;;16.60;99.90;;;;;;4901956;29;20749;-67
2022/07/23 03:40:31;;;;;;;4.30;1.20;;;16.60;99.90;;;;;;4918134;29;20805;-67
2022/07/23 03:42:56;;;;;;;2.13;1.17;;;16.70;99.90;;;;;;4902147;29;20422;-67
2022/07/23 03:45:22;;;;;;;2.65;0.90;;;16.70;99.90;;;;;;4903040;29;20408;-67
2022/07/23 03:47:48;;;;;;;2.97;0.90;;;16.70;99.90;;;;;;4901598;29;20412;-67
2022/07/23 03:50:13;;;;;;;3.23;0.97;;;16.60;99.90;;;;;;4899762;29;20405;-67
2022/07/23 03:52:39;;;;;;;3.50;1.00;;;16.70;99.90;;;;;;4899490;29;20397;-67
2022/07/23 03:55:05;;;;;;;3.05;0.90;;;16.60;99.90;;;;;;4899951;29;20492;-67
2022/07/23 03:57:31;;;;;;;3.30;1.02;;;16.60;99.90;;;;;;4900248;29;20691;-67
2022/07/23 03:59:56;;;;;;;1.75;0.90;;;16.60;99.90;;;;;;4916212;29;20397;-67
2022/07/23 04:02:22;;;;;;;2.30;1.10;;;16.70;99.90;;;;;;4899197;29;20409;-67
2022/07/23 04:04:47;;;;;;;4.18;1.10;;;16.60;99.90;;;;;;4902104;29;20471;-67
2022/07/23 04:07:14;;;;;;;3.27;1.17;;;16.70;99.90;;;;;;4901507;29;20397;-67
2022/07/23 04:09:42;;;;;;;3.33;1.23;;;16.60;99.90;;;;;;4901721;29;20825;-67
2022/07/23 04:12:07;;;;;;;2.10;1.20;;;16.60;99.90;;;;;;4900419;29;20671;-67
2022/07/23 04:14:34;;;;;;;4.32;0.98;;;16.60;99.90;;;;;;4901194;29;20821;-67
2022/07/23 04:17:00;;;;;;;1.43;1.00;;;16.60;99.90;;;;;;4896372;29;20500;-67
2022/07/23 04:19:26;;;;;;;3.13;0.90;;;16.70;99.90;;;;;;4916283;29;20476;-67
2022/07/23 04:21:52;;;;;;;1.80;0.73;;;16.70;99.90;;;;;;4900093;29;20429;-67
2022/07/23 04:24:18;;;;;;;2.93;1.03;;;16.70;99.90;;;;;;4916091;29;20421;-67
2022/07/23 04:26:44;;;;;;;3.27;1.30;;;16.80;99.90;;;;;;4898871;29;20987;-67
2022/07/23 04:29:10;;;;;;;2.33;0.90;;;16.70;99.90;;;;;;4898930;29;20487;-67
2022/07/23 04:31:35;;;;;;;3.13;1.27;;;16.70;99.90;;;;;;4914586;29;20472;-67
2022/07/23 04:34:01;;;;;;;2.72;1.00;;;16.70;99.90;;;;;;4915119;29;20448;-67
2022/07/23 04:36:27;;;;;;;3.53;0.95;;;16.70;99.90;;;;;;4898049;29;20414;-67
2022/07/23 04:38:52;;;;;;;3.03;1.10;;;16.70;99.90;;;;;;4898691;29;20428;-67
2022/07/23 04:41:18;;;;;;;4.17;1.10;;;16.70;99.90;;;;;;4899076;29;20397;-67
2022/07/23 04:43:43;;;;;;;4.25;1.38;;;16.60;99.90;;;;;;4898550;29;20477;-67
2022/07/23 04:46:10;;;;;;;3.27;1.27;;;16.60;99.90;;;;;;4914783;29;20500;-67
2022/07/23 04:48:36;;;;;;;4.53;1.13;;;16.50;99.90;;;;;;4899208;29;20417;-67
2022/07/23 04:51:01;;;;;;;2.45;1.02;;;16.50;99.90;;;;;;4913991;29;20784;-67
2022/07/23 04:53:29;;;;;;;3.15;1.25;;;16.60;99.90;;;;;;4914949;29;20447;-67
2022/07/23 04:55:54;;;;;;;3.60;1.40;;;16.60;99.90;;;;;;4880583;29;20428;-67
2022/07/23 04:58:20;;;;;;;3.30;1.50;;;16.60;99.90;;;;;;4910825;29;20510;-67
2022/07/23 05:00:46;;;;;;;3.83;1.63;;;16.50;99.90;;;;;;4894171;29;20424;-67
2022/07/23 05:03:12;;;;;;;4.63;1.77;;;16.40;99.90;;;;;;4893826;29;20519;-67
2022/07/23 05:05:37;;;;;;;1.92;1.38;;;16.30;99.90;;;;;;4911027;29;20393;-67
2022/07/23 05:08:03;;;;;;;2.70;1.10;;;16.20;99.90;;;;;;4894124;29;20683;-67
2022/07/23 05:10:29;;;;;;;3.78;1.50;;;16.30;99.90;;;;;;4894005;29;20423;-67
2022/07/23 05:12:55;;;;;;;3.57;1.63;;;16.30;99.90;;;;;;4896092;29;20479;-67
2022/07/23 05:15:20;;;;;;;3.33;1.40;;;16.20;99.90;;;;;;4897055;29;20411;-67
2022/07/23 05:17:46;;;;;;;3.50;1.30;;;16.10;99.90;;;;;;4897583;29;20404;-67
2022/07/23 05:20:11;;;;;;;1.90;1.00;;;16.10;99.90;;;;;;4898494;29;20397;-67
2022/07/23 05:22:37;;;;;;;3.30;1.00;;;16.10;99.90;;;;;;4897561;29;20435;-67
2022/07/23 05:25:04;;;;;;;2.38;0.95;;;16.20;99.90;;;;;;4912922;29;20409;-67
2022/07/23 05:27:30;;;;;;;1.73;0.93;;;16.20;99.90;;;;;;4895960;29;20397;-67
2022/07/23 05:29:55;;;;;;;2.38;1.05;;;16.30;99.90;;;;;;4911226;29;20485;-68
2022/07/23 05:32:21;;;;;;;5.37;1.47;;;16.30;99.90;;;;;;4892635;29;20405;-66
2022/07/23 05:34:46;;;;;;;1.30;0.87;;;16.30;99.90;;;;;;4892063;29;20404;-67
2022/07/23 05:37:12;;;;;;;2.33;0.80;;;16.30;99.90;;;;;;4892249;29;20682;-67
2022/07/23 05:39:37;;;;;;;2.23;1.00;;;16.40;99.90;;;;;;4893995;29;20691;-67
2022/07/23 05:42:03;;;;;;;2.20;1.00;;;16.40;99.90;;;;;;4909708;29;20388;-67
2022/07/23 05:44:29;;;;;;;2.33;0.87;;;16.40;99.90;;;;;;4908969;29;20393;-67
2022/07/23 05:46:54;;;;;;;1.63;0.70;;;16.40;99.90;;;;;;4893628;29;20409;-67
2022/07/23 05:49:20;;;;;;;3.13;0.90;;;16.50;99.90;;;;;;4894472;29;20409;-67
2022/07/23 05:51:45;;;;;;;4.07;1.20;;;16.40;99.90;;;;;;4894422;29;20458;-67
2022/07/23 05:54:11;;;;;;;1.73;0.80;;;16.40;99.90;;;;;;4892739;29;20754;-67
2022/07/23 05:56:36;;;;;;;2.05;0.90;;;16.40;99.90;;;;;;4893981;29;20698;-67
2022/07/23 05:59:02;;;;;;;1.60;0.70;;;16.40;99.90;;;;;;4896831;29;20815;-67
2022/07/23 06:01:28;;;;;;;1.30;0.90;;;16.50;99.90;;;;;;4898525;29;20424;-67
2022/07/23 06:03:53;;;;;;;1.73;0.87;;;16.50;99.90;;;;;;4901575;29;20424;-67
2022/07/23 06:06:19;;;;;;;2.10;0.90;;;16.60;99.90;;;;;;4900316;29;20397;-67
2022/07/23 06:08:44;;;;;;;2.03;0.90;;;16.60;99.90;;;;;;4915054;29;20503;-67
2022/07/23 06:11:10;;;;;;;1.07;0.63;;;16.60;99.90;;;;;;4898091;29;20404;-67
2022/07/23 06:13:36;;;;;;;2.27;0.97;;;16.70;99.90;;;;;;4897731;29;20472;-67
2022/07/23 06:16:02;;;;;;;1.83;0.90;;;16.70;99.90;;;;;;4912962;29;20431;-67
2022/07/23 06:18:27;;;;;;;3.10;0.90;;;16.60;99.90;;;;;;4896821;29;20688;-67
2022/07/23 06:20:53;;;;;;;3.37;1.10;;;16.60;99.90;;;;;;4896569;29;20405;-67
2022/07/23 06:23:18;;;;;;;2.80;1.00;;;16.70;99.90;;;;;;4896334;29;20421;-67
2022/07/23 06:25:47;;;;;;;3.42;1.30;;;16.60;99.90;;;;;;4896229;29;20682;-67
2022/07/23 06:28:12;;;;;;;3.15;1.20;;;16.60;99.90;;;;;;4914649;29;20393;-67
2022/07/23 06:30:38;;;;;;;2.15;0.95;;;16.60;99.90;;;;;;4912397;29;20408;-67
2022/07/23 06:33:04;;;;;;;2.27;1.03;;;16.60;99.90;;;;;;4894453;29;20655;-67
2022/07/23 06:35:29;;;;;;;2.10;1.03;;;16.70;99.90;;;;;;4894890;29;20795;-67
2022/07/23 06:37:55;;;;;;;1.97;1.00;;;16.70;99.90;;;;;;4895613;29;20825;-67
2022/07/23 06:40:21;;;;;;;4.32;1.10;;;16.80;99.90;;;;;;4895171;29;20511;-67
2022/07/23 06:42:46;;;;;;;3.37;1.20;;;16.70;99.90;;;;;;4896489;29;20413;-67
2022/07/23 06:45:12;;;;;;;3.63;1.10;;;16.80;99.90;;;;;;4895528;29;20396;-67
2022/07/23 06:47:38;;;;;;;9.85;1.10;;;16.90;99.90;;;;;;4893583;29;20927;-67
2022/07/23 06:50:04;;;;;;;2.42;1.20;;;16.90;99.90;;;;;;4894450;29;20678;-67
2022/07/23 06:52:29;;;;;;;2.05;0.93;;;16.90;99.90;;;;;;4892427;29;20405;-67
2022/07/23 06:54:55;;;;;;;2.42;1.40;;;16.80;99.90;;;;;;4893778;29;20405;-67
2022/07/23 06:57:21;;;;;;;4.23;1.30;;;16.80;99.90;;;;;;4910578;29;20412;-67
2022/07/23 06:59:46;;;;;;;2.80;1.13;;;16.70;99.90;;;;;;4893482;29;20739;-67
2022/07/23 07:02:12;;;;;;;3.67;1.17;;;16.80;99.90;;;;;;4909489;29;20420;-67
2022/07/23 07:04:37;;;;;;;4.83;1.20;;;16.80;99.90;;;;;;4910063;29;20412;-67
2022/07/23 07:07:03;;;;;;;3.17;1.00;;;16.80;99.90;;;;;;4894216;29;20389;-67
2022/07/23 07:09:29;;;;;;;3.08;1.17;;;16.70;99.90;;;;;;4895844;29;20421;-67
2022/07/23 07:11:55;;;;;;;2.20;1.00;;;16.70;99.90;;;;;;4895627;29;20492;-67
2022/07/23 07:14:20;;;;;;;3.17;1.07;;;16.70;99.90;;;;;;4895911;29;20679;-67
2022/07/23 07:16:46;;;;;;;1.42;0.80;;;16.70;99.90;;;;;;4896589;29;20425;-67
2022/07/23 07:19:11;;;;;;;1.87;0.83;;;16.70;99.90;;;;;;4911077;29;20433;-67
2022/07/23 07:21:37;;;;;;;1.83;0.80;;;16.70;99.90;;;;;;4920379;29;20452;-67
2022/07/23 07:24:06;;;;;;;2.77;1.10;;;16.70;99.90;;;;;;4919073;29;20550;-67
2022/07/23 07:26:32;;;;;;;2.67;0.98;;;16.70;99.90;;;;;;4912431;29;20391;-67
2022/07/23 07:28:57;;;;;;;2.38;0.90;;;16.80;99.90;;;;;;4928715;29;20565;-67
2022/07/23 07:31:23;;;;;;;2.03;0.90;;;16.90;99.90;;;;;;4927720;29;20582;-67
2022/07/23 07:33:49;;;;;;;2.13;0.80;;;16.80;99.90;;;;;;4910170;29;20404;-67
2022/07/23 07:36:14;;;;;;;2.87;0.80;;;16.60;99.90;;;;;;4904690;29;20410;-67
2022/07/23 07:38:43;;;;;;;2.05;0.80;;;16.50;99.90;;;;;;4909244;29;20415;-67
2022/07/23 07:41:09;;;;;;;1.95;0.75;;;16.40;99.90;;;;;;4907622;29;20421;-67
2022/07/23 07:43:35;;;;;;;2.80;0.90;;;16.30;99.90;;;;;;4908417;29;20592;-67
2022/07/23 07:46:03;;;;;;;2.40;1.00;;;16.40;99.90;;;;;;4911160;29;20565;-67
2022/07/23 07:48:28;;;;;;;1.90;1.10;;;16.30;99.90;;;;;;4912119;29;20396;-67
2022/07/23 07:50:54;;;;;;;1.73;0.70;;;16.30;99.90;;;;;;4928592;29;20676;-67
2022/07/23 07:53:20;;;;;;;1.50;0.63;;;16.50;99.90;;;;;;4909471;29;20391;-67
2022/07/23 07:55:45;;;;;;;1.95;0.70;;;16.60;99.90;;;;;;4910410;29;20661;-67
2022/07/23 07:58:11;;;;;;;4.22;0.90;;;16.70;99.90;;;;;;4926945;29;20431;-67
2022/07/23 08:00:37;;;;;;;1.87;0.80;;;16.80;99.90;;;;;;4909357;29;20681;-67
2022/07/23 08:03:02;;;;;;;1.50;0.90;;;16.90;99.90;;;;;;4926995;29;20720;-67
2022/07/23 08:05:30;;;;;;;2.00;0.75;;;17.10;99.90;;;;;;4928355;29;20490;-67
2022/07/23 08:07:57;;;;;;;1.80;0.70;;;17.00;99.90;;;;;;4910519;29;20568;-67
2022/07/23 08:10:24;;;;;;;1.05;0.63;;;17.00;99.90;;;;;;4909722;29;20399;-67
2022/07/23 08:12:53;;;;;;;1.33;0.70;;;17.20;99.90;;;;;;4907902;29;20399;-67
2022/07/23 08:15:21;;;;;;;1.92;0.70;;;17.20;99.90;;;;;;4924619;29;20486;-67
2022/07/23 08:17:48;;;;;;;2.42;0.60;;;17.30;99.90;;;;;;4923608;29;20491;-67
2022/07/23 08:20:15;;;;;;;2.72;0.80;;;17.30;99.90;;;;;;4909541;29;20396;-67
2022/07/23 08:22:49;;;;;;;1.27;0.57;;;17.30;99.90;;;;;;4904498;29;20428;-67
2022/07/23 08:25:16;;;;;;;3.05;0.70;;;17.30;99.90;;;;;;4903520;29;20853;-67
2022/07/23 08:27:42;;;;;;;0.93;0.57;;;17.10;99.90;;;;;;4904196;29;20486;-67
2022/07/23 08:30:09;;;;;;;1.00;0.50;;;16.90;99.90;;;;;;4920164;29;20736;-67
2022/07/23 08:32:55;;;;;;;0.50;0.47;;;16.70;99.90;;;;;;4905152;29;20388;-67
2022/07/23 08:35:40;;;;;;;1.08;0.70;;;16.50;99.90;;;;;;4923829;29;20487;-67
2022/07/23 08:38:08;;;;;;;1.40;0.60;;;16.40;99.90;;;;;;4909957;29;20482;-67
2022/07/23 08:40:37;;;;;;;1.75;0.88;;;16.40;99.90;;;;;;4926990;29;20415;-67
2022/07/23 08:43:07;;;;;;;1.33;0.75;;;16.40;99.90;;;;;;4928450;29;20645;-67
2022/07/23 08:45:40;;;;;;;2.55;0.70;;;16.50;99.90;;;;;;4913262;29;20384;-67
2022/07/23 08:48:12;;;;;;;1.70;0.60;;;16.40;99.90;;;;;;4928858;29;20388;-67
2022/07/23 08:50:46;;;;;;;1.37;0.57;;;16.50;99.90;;;;;;4928917;29;20468;-67
2022/07/23 08:53:12;;;;;;;1.60;0.50;;;16.60;99.90;;;;;;4911592;29;20703;-67
2022/07/23 08:55:38;;;;;;;0.63;0.50;;;16.70;99.90;;;;;;4926742;29;20426;-67
2022/07/23 08:58:03;;;;;;;0.73;0.60;;;16.90;99.90;;;;;;4909612;29;20489;-67
2022/07/23 09:00:30;;;;;;;1.17;0.50;;;17.00;99.90;;;;;;4906744;29;20406;-67
2022/07/23 09:02:55;;;;;;;1.08;0.63;;;17.10;99.90;;;;;;4906938;29;20415;-67
2022/07/23 09:05:21;;;;;;;1.25;0.50;;;17.10;99.90;;;;;;4926176;29;20422;-67
2022/07/23 09:08:08;;;;;;;0.90;0.40;;;17.30;99.90;;;;;;4932669;29;20402;-67
2022/07/23 09:11:10;;;;;;;0.82;0.50;;;17.40;99.90;;;;;;4915496;29;20863;-67
2022/07/23 09:13:53;;;;;;;0.82;0.43;;;17.50;99.90;;;;;;4885823;29;20466;-67
2022/07/23 09:16:30;;;;;;;2.00;0.85;;;17.60;99.90;;;;;;4911154;29;20562;-67
2022/07/23 09:19:01;;;;;;;0.70;0.40;;;17.60;99.90;;;;;;4912651;29;20462;-68
2022/07/23 09:21:34;;;;;;;1.95;0.60;;;17.70;99.90;;;;;;4927017;29;20407;-67
2022/07/23 09:24:05;;;;;;;1.25;0.50;;;17.70;99.90;;;;;;4912062;29;20760;-67
2022/07/23 09:26:46;;;;;;;1.25;0.60;;;17.80;99.90;;;;;;4911797;29;20812;-67
2022/07/23 09:29:17;;;;;;;1.05;0.40;;;17.80;99.90;;;;;;4928802;29;20599;-67
2022/07/23 09:31:45;;;;;;;1.95;0.70;;;17.90;99.90;;;;;;4912916;29;20479;-67
2022/07/23 09:34:26;;;;;;;1.33;0.45;;;18.00;99.90;;;;;;4910415;29;20407;-67
2022/07/23 09:36:54;;;;;;;1.77;0.70;;;18.00;99.90;;;;;;4925811;29;20622;-67
2022/07/23 09:39:31;;;;;;;1.15;0.60;;;18.10;99.90;;;;;;4911116;29;20404;-67
2022/07/23 09:41:57;;;;;;;0.93;0.50;;;18.10;99.90;;;;;;4929464;29;20486;-67
2022/07/23 09:44:23;;;;;;;1.00;0.57;;;18.20;99.90;;;;;;4911837;29;20407;-67
2022/07/23 09:46:50;;;;;;;1.67;0.77;;;18.20;99.90;;;;;;4929700;29;20733;-67
2022/07/23 09:49:21;;;;;;;1.25;0.60;;;18.20;99.90;;;;;;4913664;29;20383;-67
2022/07/23 09:51:57;;;;;;;1.42;0.70;;;18.20;99.90;;;;;;4932188;29;20812;-67
2022/07/23 09:54:31;;;;;;;0.93;0.52;;;18.10;99.90;;;;;;4915402;29;20527;-67
2022/07/23 09:56:58;;;;;;;1.13;0.60;;;18.20;99.90;;;;;;4911689;29;20490;-67
2022/07/23 09:59:30;;;;;;;0.40;0.40;;;18.10;99.90;;;;;;4911659;29;20414;-67
2022/07/23 10:01:58;;;;;;;0.98;0.50;;;18.00;99.90;;;;;;4912055;29;20462;-67
2022/07/23 10:04:25;;;;;;;1.45;0.50;;;18.10;99.90;;;;;;4929084;29;20422;-67
2022/07/23 10:06:56;;;;;;;1.05;0.50;;;18.10;99.90;;;;;;4912671;29;20392;-67
2022/07/23 10:09:29;;;;;;;2.00;0.55;;;18.10;99.90;;;;;;4928037;29;20655;-67
2022/07/23 10:12:55;;;;;;;1.10;0.60;;;18.10;99.90;;;;;;4929099;29;20388;-67
2022/07/23 10:14:51;;;;;;;0.75;0.57;;;18.30;99.90;;;;;;4920260;29;20473;-67
2022/07/23 10:17:17;;;;;;;1.58;0.55;;;18.30;99.90;;;;;;4929634;29;20628;-67
2022/07/23 10:19:43;;;;;;;1.42;0.80;;;18.30;99.90;;;;;;4910370;29;20584;-67
2022/07/23 10:22:22;;;;;;;1.92;0.70;;;18.20;99.90;;;;;;4925180;29;20413;-67
2022/07/23 10:25:10;;;;;;;0.90;0.60;;;18.10;99.90;;;;;;4926081;29;20403;-67
2022/07/23 10:27:53;;;;;;;1.10;0.50;;;18.10;99.90;;;;;;4924822;29;20487;-67
2022/07/23 10:30:39;;;;;;;1.42;0.60;;;18.10;99.90;;;;;;4925489;29;20463;-67
2022/07/23 10:33:29;;;;;;;1.27;0.50;;;18.10;99.90;;;;;;4919960;29;20392;-67
2022/07/23 10:36:09;;;;;;;1.13;0.50;;;18.20;99.90;;;;;;4926314;29;20649;-67
2022/07/23 10:38:42;;;;;;;1.02;0.50;;;18.30;99.90;;;;;;4922542;29;20444;-67
2022/07/23 10:41:08;;;;;;;1.65;0.60;;;18.40;99.90;;;;;;4907061;29;20392;-67
2022/07/23 10:43:34;;;;;;;1.20;0.60;;;18.50;99.90;;;;;;4908671;29;20422;-67
2022/07/23 10:49:35;;;;;;;1.00;0.60;;;18.70;99.90;;;;;;4848218;29;20418;-67
2022/07/23 10:52:13;;;;;;;1.48;0.50;;;18.80;99.90;;;;;;4896721;29;20391;-67
2022/07/23 10:54:50;;;;;;;1.77;0.70;;;18.80;99.90;;;;;;4923355;29;20494;-67
2022/07/23 10:57:21;;;;;;;0.95;0.60;;;18.80;99.90;;;;;;4905379;29;20391;-67
2022/07/23 11:02:30;;;;;;;0.80;0.30;;;19.00;99.90;;;;;;4927860;29;20850;-67
2022/07/23 11:05:09;;;;;;;1.17;0.50;;;19.10;99.90;;;;;;4925921;29;20410;-67
2022/07/23 11:07:36;;;;;;;1.10;0.50;;;19.30;99.90;;;;;;4928102;29;20390;-67
2022/07/23 11:10:23;;;;;;;1.80;0.70;;;19.30;99.90;;;;;;4910733;29;20411;-67
2022/07/23 11:12:48;;;;;;;0.68;0.50;;;19.30;99.90;;;;;;4904876;29;20681;-67
2022/07/23 11:15:14;;;;;;;1.57;0.60;;;19.30;99.90;;;;;;4908155;29;20398;-67
2022/07/23 11:17:43;;;;;;;0.40;0.40;;;19.30;99.90;;;;;;4906659;29;20710;-67
2022/07/23 11:20:13;;;;;;;1.87;0.50;;;19.20;99.90;;;;;;4923738;29;20537;-67
2022/07/23 11:22:44;;;;;;;1.20;0.80;;;19.20;99.90;;;;;;4920390;29;20446;-67
2022/07/23 11:25:28;;;;;;;1.02;0.40;;;19.30;99.90;;;;;;4917852;29;20408;-67
2022/07/23 11:27:55;;;;;;;1.75;0.60;;;19.50;99.90;;;;;;4901347;29;20398;-67
2022/07/23 11:30:25;;;;;;;1.27;0.50;;;19.70;99.90;;;;;;4896936;29;20818;-67
2022/07/23 11:32:52;;;;;;;1.45;0.50;;;19.70;99.90;;;;;;4911470;29;21022;-67
2022/07/23 11:35:27;;;;;;;2.42;0.70;;;19.60;99.90;;;;;;4911949;29;20440;-67
2022/07/23 11:37:58;;;;;;;2.55;0.70;;;19.50;99.90;;;;;;4899296;29;20559;-67
2022/07/23 11:40:24;;;;;;;1.70;0.60;;;19.60;99.90;;;;;;4918267;29;20546;-67
2022/07/23 11:42:56;;;;;;;1.10;0.50;;;19.50;99.90;;;;;;4903236;29;20407;-67
2022/07/23 11:45:24;;;;;;;0.68;0.50;;;19.50;99.90;;;;;;4904390;29;20392;-67
2022/07/23 11:47:50;;;;;;;1.70;0.50;;;19.70;99.90;;;;;;4902405;29;20669;-67
2022/07/23 11:50:15;;;;;;;0.88;0.45;;;19.70;99.90;;;;;;4904217;29;20392;-67
2022/07/23 11:52:41;;;;;;;1.23;0.70;;;19.80;99.90;;;;;;4902996;29;20430;-67
2022/07/23 11:55:10;;;;;;;0.57;0.40;;;20.10;99.90;;;;;;4907225;29;20665;-67
2022/07/23 11:57:38;;;;;;;1.05;0.50;;;20.10;99.90;;;;;;4907036;29;20407;-67
2022/07/23 12:00:16;;;;;;;1.93;0.60;;;20.00;99.90;;;;;;4923154;29;20863;-67
2022/07/23 12:02:45;;;;;;;0.75;0.40;;;19.70;99.90;;;;;;4906402;29;20545;-67
2022/07/23 12:05:26;;;;;;;1.15;0.63;;;19.40;99.90;;;;;;4906276;29;20683;-68
2022/07/23 12:07:54;;;;;;;2.20;0.70;;;19.30;99.90;;;;;;4906784;29;20431;-67
2022/07/23 12:10:51;;;;;;;1.05;0.60;;;19.30;99.90;;;;;;4923445;29;20463;-67
2022/07/23 12:13:20;;;;;;;2.33;0.90;;;19.10;99.90;;;;;;4925158;29;20547;-67
2022/07/23 12:15:48;;;;;;;1.38;0.63;;;19.00;99.90;;;;;;4911260;29;20398;-67
2022/07/23 12:18:20;;;;;;;1.77;0.80;;;19.00;99.90;;;;;;4926117;29;20527;-67
2022/07/23 12:20:48;;;;;;;1.02;0.60;;;19.10;99.90;;;;;;4908171;29;20454;-67
2022/07/23 12:23:15;;;;;;;2.25;0.88;;;19.10;99.90;;;;;;4908156;29;20446;-67
2022/07/23 12:25:43;;;;;;;2.07;0.73;;;19.10;99.90;;;;;;4911022;29;20712;-67
2022/07/23 12:28:11;;;;;;;3.17;0.90;;;19.30;99.90;;;;;;4926159;29;20788;-67
2022/07/23 12:30:43;;;;;;;1.00;0.80;;;19.40;99.90;;;;;;4924184;29;20641;-67
2022/07/23 12:33:11;;;;;;;2.17;0.90;;;19.50;99.90;;;;;;4920287;29;20506;-66
2022/07/23 12:35:41;;;;;;;2.10;0.70;;;19.30;99.90;;;;;;4920713;29;20515;-67
2022/07/23 12:38:12;;;;;;;5.10;0.68;;;19.10;99.90;;;;;;4902274;29;20406;-67
2022/07/23 12:40:46;;;;;;;2.72;1.05;;;19.10;99.90;;;;;;4900739;29;20708;-67
2022/07/23 12:43:33;;;;;;;3.17;0.93;;;19.00;99.90;;;;;;4898890;29;20591;-66
2022/07/23 12:46:06;;;;;;;2.28;1.08;;;19.00;99.90;;;;;;4899092;29;20749;-66
2022/07/23 12:48:57;;;;;;;2.75;0.80;;;19.10;99.90;;;;;;4900915;29;20810;-66
2022/07/23 12:51:32;;;;;;;2.40;0.80;;;19.70;99.90;;;;;;4895816;29;20418;-66
2022/07/23 12:54:10;;;;;;;1.65;0.60;;;20.10;99.90;;;;;;4902202;29;20685;-66
2022/07/23 12:56:38;;;;;;;2.45;0.98;;;20.10;99.90;;;;;;4904671;29;20388;-66
2022/07/23 12:59:06;;;;;;;1.58;0.70;;;20.00;99.90;;;;;;4922314;29;20784;-66